sensor_id;sensor_type;location;lat;lon;timestamp;P1;durP1;ratioP1;P2;durP2;ratioP2
4585;SDS011;2305;50.118;8.952;2022-10-16T00:01:42;8.93;;;2.00;;
4585;SDS011;2305;50.118;8.952;2022-10-16T00:04:10;3.47;;;1.57;;
4585;SDS011;2305;50.118;8.952;2022-10-16T00:06:38;4.23;;;1.47;;
4585;SDS011;2305;50.118;8.952;2022-10-16T00:09:09;5.93;;;1.60;;
4585;SDS011;2305;50.118;8.952;2022-10-16T00:11:40;1.97;;;1.30;;
4585;SDS011;2305;50.118;8.952;2022-10-16T00:14:11;3.73;;;1.37;;
4585;SDS011;2305;50.118;8.952;2022-10-16T00:16:41;1.43;;;1.23;;
4585;SDS011;2305;50.118;8.952;2022-10-16T00:19:09;2.70;;;1.60;;
4585;SDS011;2305;50.118;8.952;2022-10-16T00:21:38;5.07;;;1.33;;
4585;SDS011;2305;50.118;8.952;2022-10-16T00:24:07;2.87;;;1.70;;
4585;SDS011;2305;50.118;8.952;2022-10-16T00:26:36;9.17;;;3.70;;
4585;SDS011;2305;50.118;8.952;2022-10-16T00:29:06;2.77;;;2.20;;
4585;SDS011;2305;50.118;8.952;2022-10-16T00:31:34;3.00;;;2.20;;
4585;SDS011;2305;50.118;8.952;2022-10-16T00:34:03;3.17;;;1.97;;
4585;SDS011;2305;50.118;8.952;2022-10-16T00:36:31;2.83;;;2.07;;
4585;SDS011;2305;50.118;8.952;2022-10-16T00:38:59;4.77;;;1.97;;
4585;SDS011;2305;50.118;8.952;2022-10-16T00:41:32;7.33;;;2.10;;
4585;SDS011;2305;50.118;8.952;2022-10-16T00:44:01;1.93;;;1.73;;
4585;SDS011;2305;50.118;8.952;2022-10-16T00:46:35;8.50;;;2.03;;
4585;SDS011;2305;50.118;8.952;2022-10-16T00:49:07;2.73;;;1.60;;
4585;SDS011;2305;50.118;8.952;2022-10-16T00:51:37;4.43;;;1.80;;
4585;SDS011;2305;50.118;8.952;2022-10-16T00:54:08;2.17;;;1.80;;
4585;SDS011;2305;50.118;8.952;2022-10-16T00:56:38;7.20;;;1.50;;
4585;SDS011;2305;50.118;8.952;2022-10-16T00:59:07;1.67;;;1.57;;
4585;SDS011;2305;50.118;8.952;2022-10-16T01:01:43;3.33;;;1.67;;
4585;SDS011;2305;50.118;8.952;2022-10-16T01:04:10;2.03;;;1.47;;
4585;SDS011;2305;50.118;8.952;2022-10-16T01:06:39;3.70;;;1.70;;
4585;SDS011;2305;50.118;8.952;2022-10-16T01:09:15;2.70;;;1.53;;
4585;SDS011;2305;50.118;8.952;2022-10-16T01:11:49;4.30;;;1.80;;
4585;SDS011;2305;50.118;8.952;2022-10-16T01:14:25;6.60;;;1.90;;
4585;SDS011;2305;50.118;8.952;2022-10-16T01:17:01;15.07;;;2.23;;
4585;SDS011;2305;50.118;8.952;2022-10-16T01:19:38;2.43;;;2.10;;
4585;SDS011;2305;50.118;8.952;2022-10-16T01:22:12;1.90;;;1.80;;
4585;SDS011;2305;50.118;8.952;2022-10-16T01:24:42;4.13;;;1.80;;
4585;SDS011;2305;50.118;8.952;2022-10-16T01:27:22;3.43;;;2.60;;
4585;SDS011;2305;50.118;8.952;2022-10-16T01:29:54;3.27;;;3.00;;
4585;SDS011;2305;50.118;8.952;2022-10-16T01:32:28;2.90;;;2.57;;
4585;SDS011;2305;50.118;8.952;2022-10-16T01:35:02;4.67;;;2.93;;
4585;SDS011;2305;50.118;8.952;2022-10-16T01:37:34;6.60;;;2.30;;
4585;SDS011;2305;50.118;8.952;2022-10-16T01:40:05;3.17;;;2.20;;
4585;SDS011;2305;50.118;8.952;2022-10-16T01:42:39;3.13;;;2.80;;
4585;SDS011;2305;50.118;8.952;2022-10-16T01:45:11;2.10;;;1.67;;
4585;SDS011;2305;50.118;8.952;2022-10-16T01:47:44;3.53;;;2.27;;
4585;SDS011;2305;50.118;8.952;2022-10-16T01:50:14;2.40;;;2.07;;
4585;SDS011;2305;50.118;8.952;2022-10-16T01:52:45;2.50;;;2.07;;
4585;SDS011;2305;50.118;8.952;2022-10-16T01:55:17;5.03;;;1.80;;
4585;SDS011;2305;50.118;8.952;2022-10-16T01:57:51;2.70;;;1.97;;
4585;SDS011;2305;50.118;8.952;2022-10-16T02:00:21;5.10;;;2.10;;
4585;SDS011;2305;50.118;8.952;2022-10-16T02:02:51;5.00;;;1.70;;
4585;SDS011;2305;50.118;8.952;2022-10-16T02:05:41;1.67;;;1.43;;
4585;SDS011;2305;50.118;8.952;2022-10-16T02:08:11;4.57;;;1.97;;
4585;SDS011;2305;50.118;8.952;2022-10-16T02:10:40;4.67;;;1.97;;
4585;SDS011;2305;50.118;8.952;2022-10-16T02:13:11;2.73;;;1.60;;
4585;SDS011;2305;50.118;8.952;2022-10-16T02:15:43;3.83;;;1.77;;
4585;SDS011;2305;50.118;8.952;2022-10-16T02:18:11;3.13;;;1.50;;
4585;SDS011;2305;50.118;8.952;2022-10-16T02:20:40;3.40;;;1.83;;
4585;SDS011;2305;50.118;8.952;2022-10-16T02:23:15;5.63;;;1.30;;
4585;SDS011;2305;50.118;8.952;2022-10-16T02:25:51;1.57;;;1.30;;
4585;SDS011;2305;50.118;8.952;2022-10-16T02:28:23;1.40;;;1.10;;
4585;SDS011;2305;50.118;8.952;2022-10-16T02:30:58;3.13;;;1.50;;
4585;SDS011;2305;50.118;8.952;2022-10-16T02:33:29;4.50;;;1.43;;
4585;SDS011;2305;50.118;8.952;2022-10-16T02:36:00;5.73;;;1.40;;
4585;SDS011;2305;50.118;8.952;2022-10-16T02:38:30;1.60;;;1.40;;
4585;SDS011;2305;50.118;8.952;2022-10-16T02:40:59;2.47;;;1.13;;
4585;SDS011;2305;50.118;8.952;2022-10-16T02:43:30;2.33;;;1.20;;
4585;SDS011;2305;50.118;8.952;2022-10-16T02:45:59;3.03;;;1.10;;
4585;SDS011;2305;50.118;8.952;2022-10-16T02:48:27;4.00;;;1.87;;
4585;SDS011;2305;50.118;8.952;2022-10-16T02:50:55;2.37;;;1.60;;
4585;SDS011;2305;50.118;8.952;2022-10-16T02:53:23;1.63;;;1.40;;
4585;SDS011;2305;50.118;8.952;2022-10-16T02:55:53;1.57;;;1.27;;
4585;SDS011;2305;50.118;8.952;2022-10-16T02:58:21;2.43;;;1.30;;
4585;SDS011;2305;50.118;8.952;2022-10-16T03:00:50;1.47;;;1.20;;
4585;SDS011;2305;50.118;8.952;2022-10-16T03:03:18;1.77;;;1.40;;
4585;SDS011;2305;50.118;8.952;2022-10-16T03:05:46;2.73;;;1.67;;
4585;SDS011;2305;50.118;8.952;2022-10-16T03:08:14;4.83;;;1.37;;
4585;SDS011;2305;50.118;8.952;2022-10-16T03:10:41;4.20;;;1.40;;
4585;SDS011;2305;50.118;8.952;2022-10-16T03:13:09;1.60;;;1.03;;
4585;SDS011;2305;50.118;8.952;2022-10-16T03:15:37;1.93;;;1.40;;
4585;SDS011;2305;50.118;8.952;2022-10-16T03:18:06;1.33;;;1.23;;
4585;SDS011;2305;50.118;8.952;2022-10-16T03:20:34;3.73;;;1.47;;
4585;SDS011;2305;50.118;8.952;2022-10-16T03:23:02;4.80;;;1.37;;
4585;SDS011;2305;50.118;8.952;2022-10-16T03:25:30;5.90;;;1.53;;
4585;SDS011;2305;50.118;8.952;2022-10-16T03:27:58;2.50;;;1.73;;
4585;SDS011;2305;50.118;8.952;2022-10-16T03:30:28;2.20;;;1.33;;
4585;SDS011;2305;50.118;8.952;2022-10-16T03:32:56;1.47;;;1.20;;
4585;SDS011;2305;50.118;8.952;2022-10-16T03:35:25;4.27;;;1.40;;
4585;SDS011;2305;50.118;8.952;2022-10-16T03:37:53;5.17;;;1.27;;
4585;SDS011;2305;50.118;8.952;2022-10-16T03:40:21;2.40;;;1.50;;
4585;SDS011;2305;50.118;8.952;2022-10-16T03:42:49;2.27;;;1.10;;
4585;SDS011;2305;50.118;8.952;2022-10-16T03:45:17;5.00;;;1.07;;
4585;SDS011;2305;50.118;8.952;2022-10-16T03:47:45;7.00;;;1.30;;
4585;SDS011;2305;50.118;8.952;2022-10-16T03:50:14;7.83;;;1.37;;
4585;SDS011;2305;50.118;8.952;2022-10-16T03:52:43;4.17;;;1.20;;
4585;SDS011;2305;50.118;8.952;2022-10-16T03:55:11;2.10;;;1.30;;
4585;SDS011;2305;50.118;8.952;2022-10-16T03:57:41;3.83;;;1.33;;
4585;SDS011;2305;50.118;8.952;2022-10-16T04:00:09;3.30;;;1.30;;
4585;SDS011;2305;50.118;8.952;2022-10-16T04:02:38;1.60;;;1.37;;
4585;SDS011;2305;50.118;8.952;2022-10-16T04:05:07;2.27;;;1.20;;
4585;SDS011;2305;50.118;8.952;2022-10-16T04:07:35;1.30;;;1.00;;
4585;SDS011;2305;50.118;8.952;2022-10-16T04:10:05;1.40;;;1.20;;
4585;SDS011;2305;50.118;8.952;2022-10-16T04:12:34;7.37;;;1.50;;
4585;SDS011;2305;50.118;8.952;2022-10-16T04:15:02;6.10;;;1.40;;
4585;SDS011;2305;50.118;8.952;2022-10-16T04:17:30;1.10;;;1.00;;
4585;SDS011;2305;50.118;8.952;2022-10-16T04:19:58;6.23;;;1.30;;
4585;SDS011;2305;50.118;8.952;2022-10-16T04:22:25;3.17;;;1.40;;
4585;SDS011;2305;50.118;8.952;2022-10-16T04:24:58;1.20;;;1.10;;
4585;SDS011;2305;50.118;8.952;2022-10-16T04:27:29;9.20;;;1.43;;
4585;SDS011;2305;50.118;8.952;2022-10-16T04:29:59;3.53;;;2.57;;
4585;SDS011;2305;50.118;8.952;2022-10-16T04:32:27;4.33;;;1.70;;
4585;SDS011;2305;50.118;8.952;2022-10-16T04:34:55;3.00;;;1.80;;
4585;SDS011;2305;50.118;8.952;2022-10-16T04:37:23;1.70;;;1.40;;
4585;SDS011;2305;50.118;8.952;2022-10-16T04:39:53;9.20;;;1.40;;
4585;SDS011;2305;50.118;8.952;2022-10-16T04:42:21;3.43;;;1.57;;
4585;SDS011;2305;50.118;8.952;2022-10-16T04:44:50;3.70;;;1.50;;
4585;SDS011;2305;50.118;8.952;2022-10-16T04:47:19;1.80;;;1.67;;
4585;SDS011;2305;50.118;8.952;2022-10-16T04:49:47;1.93;;;1.60;;
4585;SDS011;2305;50.118;8.952;2022-10-16T04:52:15;3.57;;;1.77;;
4585;SDS011;2305;50.118;8.952;2022-10-16T04:54:43;3.17;;;1.30;;
4585;SDS011;2305;50.118;8.952;2022-10-16T04:57:11;4.20;;;1.67;;
4585;SDS011;2305;50.118;8.952;2022-10-16T04:59:39;3.10;;;1.73;;
4585;SDS011;2305;50.118;8.952;2022-10-16T05:02:08;8.80;;;1.40;;
4585;SDS011;2305;50.118;8.952;2022-10-16T05:04:36;1.70;;;1.60;;
4585;SDS011;2305;50.118;8.952;2022-10-16T05:07:04;3.83;;;1.90;;
4585;SDS011;2305;50.118;8.952;2022-10-16T05:09:32;2.17;;;1.77;;
4585;SDS011;2305;50.118;8.952;2022-10-16T05:12:00;2.13;;;1.30;;
4585;SDS011;2305;50.118;8.952;2022-10-16T05:14:29;2.17;;;1.80;;
4585;SDS011;2305;50.118;8.952;2022-10-16T05:16:58;2.30;;;1.57;;
4585;SDS011;2305;50.118;8.952;2022-10-16T05:19:28;1.80;;;1.60;;
4585;SDS011;2305;50.118;8.952;2022-10-16T05:21:56;2.20;;;1.70;;
4585;SDS011;2305;50.118;8.952;2022-10-16T05:24:24;10.40;;;1.80;;
4585;SDS011;2305;50.118;8.952;2022-10-16T05:26:52;3.73;;;1.80;;
4585;SDS011;2305;50.118;8.952;2022-10-16T05:29:21;3.40;;;1.60;;
4585;SDS011;2305;50.118;8.952;2022-10-16T05:31:50;2.90;;;1.60;;
4585;SDS011;2305;50.118;8.952;2022-10-16T05:34:21;8.20;;;2.20;;
4585;SDS011;2305;50.118;8.952;2022-10-16T05:36:50;1.63;;;1.53;;
4585;SDS011;2305;50.118;8.952;2022-10-16T05:39:18;2.30;;;2.10;;
4585;SDS011;2305;50.118;8.952;2022-10-16T05:41:46;4.93;;;3.20;;
4585;SDS011;2305;50.118;8.952;2022-10-16T05:44:17;2.73;;;2.20;;
4585;SDS011;2305;50.118;8.952;2022-10-16T05:46:45;5.20;;;2.60;;
4585;SDS011;2305;50.118;8.952;2022-10-16T05:49:13;2.83;;;2.20;;
4585;SDS011;2305;50.118;8.952;2022-10-16T05:51:42;2.00;;;1.80;;
4585;SDS011;2305;50.118;8.952;2022-10-16T05:54:11;5.80;;;2.33;;
4585;SDS011;2305;50.118;8.952;2022-10-16T05:56:39;3.03;;;2.50;;
4585;SDS011;2305;50.118;8.952;2022-10-16T05:59:06;2.23;;;2.00;;
4585;SDS011;2305;50.118;8.952;2022-10-16T06:01:34;2.43;;;2.00;;
4585;SDS011;2305;50.118;8.952;2022-10-16T06:04:02;2.30;;;1.90;;
4585;SDS011;2305;50.118;8.952;2022-10-16T06:06:30;2.50;;;2.30;;
4585;SDS011;2305;50.118;8.952;2022-10-16T06:08:58;4.73;;;2.30;;
4585;SDS011;2305;50.118;8.952;2022-10-16T06:11:28;2.03;;;1.83;;
4585;SDS011;2305;50.118;8.952;2022-10-16T06:13:59;2.23;;;2.03;;
4585;SDS011;2305;50.118;8.952;2022-10-16T06:16:33;2.60;;;2.27;;
4585;SDS011;2305;50.118;8.952;2022-10-16T06:19:02;3.43;;;2.60;;
4585;SDS011;2305;50.118;8.952;2022-10-16T06:21:35;3.33;;;2.90;;
4585;SDS011;2305;50.118;8.952;2022-10-16T06:24:03;3.80;;;2.80;;
4585;SDS011;2305;50.118;8.952;2022-10-16T06:26:32;4.47;;;2.80;;
4585;SDS011;2305;50.118;8.952;2022-10-16T06:29:00;4.37;;;3.87;;
4585;SDS011;2305;50.118;8.952;2022-10-16T06:31:28;4.27;;;3.70;;
4585;SDS011;2305;50.118;8.952;2022-10-16T06:33:58;4.33;;;3.47;;
4585;SDS011;2305;50.118;8.952;2022-10-16T06:36:28;8.37;;;4.23;;
4585;SDS011;2305;50.118;8.952;2022-10-16T06:38:56;4.10;;;3.70;;
4585;SDS011;2305;50.118;8.952;2022-10-16T06:41:24;5.10;;;4.40;;
4585;SDS011;2305;50.118;8.952;2022-10-16T06:43:53;4.47;;;4.03;;
4585;SDS011;2305;50.118;8.952;2022-10-16T06:46:22;4.40;;;4.00;;
4585;SDS011;2305;50.118;8.952;2022-10-16T06:48:51;8.23;;;5.07;;
4585;SDS011;2305;50.118;8.952;2022-10-16T06:51:22;6.60;;;4.63;;
4585;SDS011;2305;50.118;8.952;2022-10-16T06:53:52;5.80;;;4.77;;
4585;SDS011;2305;50.118;8.952;2022-10-16T06:56:30;6.00;;;3.67;;
4585;SDS011;2305;50.118;8.952;2022-10-16T06:59:00;13.23;;;4.30;;
4585;SDS011;2305;50.118;8.952;2022-10-16T07:01:29;4.80;;;4.00;;
4585;SDS011;2305;50.118;8.952;2022-10-16T07:03:57;4.20;;;3.80;;
4585;SDS011;2305;50.118;8.952;2022-10-16T07:06:25;4.13;;;3.73;;
4585;SDS011;2305;50.118;8.952;2022-10-16T07:08:54;8.53;;;3.80;;
4585;SDS011;2305;50.118;8.952;2022-10-16T07:11:25;5.83;;;3.37;;
4585;SDS011;2305;50.118;8.952;2022-10-16T07:13:53;8.07;;;3.40;;
4585;SDS011;2305;50.118;8.952;2022-10-16T07:16:24;6.20;;;4.70;;
4585;SDS011;2305;50.118;8.952;2022-10-16T07:18:56;7.50;;;3.43;;
4585;SDS011;2305;50.118;8.952;2022-10-16T07:21:27;5.90;;;3.87;;
4585;SDS011;2305;50.118;8.952;2022-10-16T07:23:57;6.13;;;3.57;;
4585;SDS011;2305;50.118;8.952;2022-10-16T07:26:31;8.93;;;3.47;;
4585;SDS011;2305;50.118;8.952;2022-10-16T07:29:02;5.60;;;3.93;;
4585;SDS011;2305;50.118;8.952;2022-10-16T07:31:32;5.67;;;3.50;;
4585;SDS011;2305;50.118;8.952;2022-10-16T07:34:00;6.70;;;3.20;;
4585;SDS011;2305;50.118;8.952;2022-10-16T07:36:28;3.83;;;2.30;;
4585;SDS011;2305;50.118;8.952;2022-10-16T07:38:56;3.10;;;2.80;;
4585;SDS011;2305;50.118;8.952;2022-10-16T07:41:26;4.23;;;2.47;;
4585;SDS011;2305;50.118;8.952;2022-10-16T07:43:56;3.97;;;2.77;;
4585;SDS011;2305;50.118;8.952;2022-10-16T07:46:28;2.33;;;2.13;;
4585;SDS011;2305;50.118;8.952;2022-10-16T07:48:58;7.63;;;2.60;;
4585;SDS011;2305;50.118;8.952;2022-10-16T07:51:26;5.10;;;3.07;;
4585;SDS011;2305;50.118;8.952;2022-10-16T07:53:54;2.87;;;2.50;;
4585;SDS011;2305;50.118;8.952;2022-10-16T07:56:24;5.10;;;2.40;;
4585;SDS011;2305;50.118;8.952;2022-10-16T07:58:52;3.50;;;2.20;;
4585;SDS011;2305;50.118;8.952;2022-10-16T08:01:20;4.20;;;2.43;;
4585;SDS011;2305;50.118;8.952;2022-10-16T08:03:51;4.57;;;2.40;;
4585;SDS011;2305;50.118;8.952;2022-10-16T08:06:21;2.47;;;2.10;;
4585;SDS011;2305;50.118;8.952;2022-10-16T08:08:53;3.87;;;2.20;;
4585;SDS011;2305;50.118;8.952;2022-10-16T08:11:22;4.50;;;3.27;;
4585;SDS011;2305;50.118;8.952;2022-10-16T08:13:50;4.93;;;3.40;;
4585;SDS011;2305;50.118;8.952;2022-10-16T08:16:18;8.00;;;3.00;;
4585;SDS011;2305;50.118;8.952;2022-10-16T08:18:48;5.53;;;2.30;;
4585;SDS011;2305;50.118;8.952;2022-10-16T08:21:18;5.30;;;2.93;;
4585;SDS011;2305;50.118;8.952;2022-10-16T08:23:49;5.13;;;2.70;;
4585;SDS011;2305;50.118;8.952;2022-10-16T08:26:23;5.13;;;2.60;;
4585;SDS011;2305;50.118;8.952;2022-10-16T08:28:52;3.23;;;2.00;;
4585;SDS011;2305;50.118;8.952;2022-10-16T08:31:21;3.10;;;1.90;;
4585;SDS011;2305;50.118;8.952;2022-10-16T08:33:49;4.93;;;2.20;;
4585;SDS011;2305;50.118;8.952;2022-10-16T08:36:22;4.60;;;2.40;;
4585;SDS011;2305;50.118;8.952;2022-10-16T08:38:49;2.50;;;2.30;;
4585;SDS011;2305;50.118;8.952;2022-10-16T08:41:22;3.13;;;2.30;;
4585;SDS011;2305;50.118;8.952;2022-10-16T08:44:16;3.07;;;2.20;;
4585;SDS011;2305;50.118;8.952;2022-10-16T08:47:09;3.63;;;2.40;;
4585;SDS011;2305;50.118;8.952;2022-10-16T08:49:43;4.60;;;2.70;;
4585;SDS011;2305;50.118;8.952;2022-10-16T08:52:24;5.00;;;2.37;;
4585;SDS011;2305;50.118;8.952;2022-10-16T08:54:55;7.27;;;2.73;;
4585;SDS011;2305;50.118;8.952;2022-10-16T08:57:25;5.10;;;2.20;;
4585;SDS011;2305;50.118;8.952;2022-10-16T08:59:54;3.07;;;2.60;;
4585;SDS011;2305;50.118;8.952;2022-10-16T09:02:35;3.60;;;2.43;;
4585;SDS011;2305;50.118;8.952;2022-10-16T09:05:11;5.10;;;3.90;;
4585;SDS011;2305;50.118;8.952;2022-10-16T09:07:53;4.77;;;3.47;;
4585;SDS011;2305;50.118;8.952;2022-10-16T09:10:35;4.77;;;2.90;;
4585;SDS011;2305;50.118;8.952;2022-10-16T09:13:11;3.60;;;2.67;;
4585;SDS011;2305;50.118;8.952;2022-10-16T09:15:48;7.03;;;3.53;;
4585;SDS011;2305;50.118;8.952;2022-10-16T09:18:24;2.93;;;2.53;;
4585;SDS011;2305;50.118;8.952;2022-10-16T09:20:59;3.77;;;2.53;;
4585;SDS011;2305;50.118;8.952;2022-10-16T09:23:35;5.97;;;1.93;;
4585;SDS011;2305;50.118;8.952;2022-10-16T09:26:04;4.63;;;2.73;;
4585;SDS011;2305;50.118;8.952;2022-10-16T09:28:36;6.17;;;3.13;;
4585;SDS011;2305;50.118;8.952;2022-10-16T09:31:04;4.67;;;3.20;;
4585;SDS011;2305;50.118;8.952;2022-10-16T09:33:33;6.30;;;3.13;;
4585;SDS011;2305;50.118;8.952;2022-10-16T09:36:04;3.50;;;2.70;;
4585;SDS011;2305;50.118;8.952;2022-10-16T09:38:34;4.10;;;2.97;;
4585;SDS011;2305;50.118;8.952;2022-10-16T09:41:11;7.70;;;3.30;;
4585;SDS011;2305;50.118;8.952;2022-10-16T09:43:46;6.50;;;3.00;;
4585;SDS011;2305;50.118;8.952;2022-10-16T09:46:24;5.43;;;3.30;;
4585;SDS011;2305;50.118;8.952;2022-10-16T09:48:54;5.30;;;2.90;;
4585;SDS011;2305;50.118;8.952;2022-10-16T09:51:24;4.83;;;2.57;;
4585;SDS011;2305;50.118;8.952;2022-10-16T09:53:56;8.70;;;3.73;;
4585;SDS011;2305;50.118;8.952;2022-10-16T09:56:27;6.33;;;2.70;;
4585;SDS011;2305;50.118;8.952;2022-10-16T09:58:59;3.50;;;2.83;;
4585;SDS011;2305;50.118;8.952;2022-10-16T10:01:29;2.40;;;2.20;;
4585;SDS011;2305;50.118;8.952;2022-10-16T10:03:59;3.23;;;2.50;;
4585;SDS011;2305;50.118;8.952;2022-10-16T10:06:32;6.87;;;3.07;;
4585;SDS011;2305;50.118;8.952;2022-10-16T10:09:13;4.17;;;2.70;;
4585;SDS011;2305;50.118;8.952;2022-10-16T10:11:45;5.73;;;3.27;;
4585;SDS011;2305;50.118;8.952;2022-10-16T10:14:20;4.33;;;2.60;;
4585;SDS011;2305;50.118;8.952;2022-10-16T10:16:50;3.97;;;2.83;;
4585;SDS011;2305;50.118;8.952;2022-10-16T10:19:20;4.90;;;2.97;;
4585;SDS011;2305;50.118;8.952;2022-10-16T10:21:53;4.90;;;2.20;;
4585;SDS011;2305;50.118;8.952;2022-10-16T10:24:22;3.40;;;2.60;;
4585;SDS011;2305;50.118;8.952;2022-10-16T10:26:52;5.53;;;3.07;;
4585;SDS011;2305;50.118;8.952;2022-10-16T10:29:31;3.23;;;2.70;;
4585;SDS011;2305;50.118;8.952;2022-10-16T10:32:19;2.17;;;1.97;;
4585;SDS011;2305;50.118;8.952;2022-10-16T10:35:07;2.70;;;2.40;;
4585;SDS011;2305;50.118;8.952;2022-10-16T10:37:47;4.00;;;2.30;;
4585;SDS011;2305;50.118;8.952;2022-10-16T10:40:29;3.47;;;2.30;;
4585;SDS011;2305;50.118;8.952;2022-10-16T10:43:09;3.90;;;2.10;;
4585;SDS011;2305;50.118;8.952;2022-10-16T10:45:51;3.93;;;1.70;;
4585;SDS011;2305;50.118;8.952;2022-10-16T10:48:38;3.23;;;2.80;;
4585;SDS011;2305;50.118;8.952;2022-10-16T10:51:19;3.57;;;2.23;;
4585;SDS011;2305;50.118;8.952;2022-10-16T10:53:56;5.43;;;2.63;;
4585;SDS011;2305;50.118;8.952;2022-10-16T10:56:42;3.77;;;2.00;;
4585;SDS011;2305;50.118;8.952;2022-10-16T10:59:25;2.83;;;2.03;;
4585;SDS011;2305;50.118;8.952;2022-10-16T11:02:06;4.27;;;2.40;;
4585;SDS011;2305;50.118;8.952;2022-10-16T11:08:03;3.87;;;2.17;;
4585;SDS011;2305;50.118;8.952;2022-10-16T11:10:42;2.70;;;2.40;;
4585;SDS011;2305;50.118;8.952;2022-10-16T11:13:19;3.63;;;2.00;;
4585;SDS011;2305;50.118;8.952;2022-10-16T11:15:56;2.43;;;2.00;;
4585;SDS011;2305;50.118;8.952;2022-10-16T11:18:28;2.13;;;1.83;;
4585;SDS011;2305;50.118;8.952;2022-10-16T11:21:00;4.40;;;2.30;;
4585;SDS011;2305;50.118;8.952;2022-10-16T11:23:34;1.80;;;1.63;;
4585;SDS011;2305;50.118;8.952;2022-10-16T11:26:11;3.57;;;1.87;;
4585;SDS011;2305;50.118;8.952;2022-10-16T11:28:45;3.93;;;2.00;;
4585;SDS011;2305;50.118;8.952;2022-10-16T11:31:17;10.97;;;2.13;;
4585;SDS011;2305;50.118;8.952;2022-10-16T11:33:52;5.00;;;2.47;;
4585;SDS011;2305;50.118;8.952;2022-10-16T11:36:33;4.53;;;2.33;;
4585;SDS011;2305;50.118;8.952;2022-10-16T11:39:08;4.87;;;2.17;;
4585;SDS011;2305;50.118;8.952;2022-10-16T11:41:47;4.83;;;2.20;;
4585;SDS011;2305;50.118;8.952;2022-10-16T11:44:27;3.37;;;1.90;;
4585;SDS011;2305;50.118;8.952;2022-10-16T11:47:10;5.87;;;1.83;;
4585;SDS011;2305;50.118;8.952;2022-10-16T11:50:11;3.57;;;2.10;;
4585;SDS011;2305;50.118;8.952;2022-10-16T11:52:46;5.83;;;1.80;;
4585;SDS011;2305;50.118;8.952;2022-10-16T11:55:22;6.33;;;1.90;;
4585;SDS011;2305;50.118;8.952;2022-10-16T11:57:57;2.30;;;1.70;;
4585;SDS011;2305;50.118;8.952;2022-10-16T12:00:33;7.50;;;1.70;;
4585;SDS011;2305;50.118;8.952;2022-10-16T12:03:10;2.07;;;1.87;;
4585;SDS011;2305;50.118;8.952;2022-10-16T12:05:52;4.43;;;1.83;;
4585;SDS011;2305;50.118;8.952;2022-10-16T12:08:26;2.60;;;1.60;;
4585;SDS011;2305;50.118;8.952;2022-10-16T12:11:05;3.97;;;1.77;;
4585;SDS011;2305;50.118;8.952;2022-10-16T12:13:36;4.00;;;1.70;;
4585;SDS011;2305;50.118;8.952;2022-10-16T12:16:19;3.90;;;1.50;;
4585;SDS011;2305;50.118;8.952;2022-10-16T12:19:02;2.53;;;1.93;;
4585;SDS011;2305;50.118;8.952;2022-10-16T12:21:40;4.33;;;1.50;;
4585;SDS011;2305;50.118;8.952;2022-10-16T12:24:19;4.83;;;2.23;;
4585;SDS011;2305;50.118;8.952;2022-10-16T12:26:50;1.90;;;1.57;;
4585;SDS011;2305;50.118;8.952;2022-10-16T12:29:22;1.87;;;1.37;;
4585;SDS011;2305;50.118;8.952;2022-10-16T12:32:01;2.43;;;1.40;;
4585;SDS011;2305;50.118;8.952;2022-10-16T12:34:37;2.50;;;1.50;;
4585;SDS011;2305;50.118;8.952;2022-10-16T12:37:14;1.50;;;1.40;;
4585;SDS011;2305;50.118;8.952;2022-10-16T12:39:47;2.03;;;1.47;;
4585;SDS011;2305;50.118;8.952;2022-10-16T12:42:23;4.43;;;1.80;;
4585;SDS011;2305;50.118;8.952;2022-10-16T12:45:00;4.23;;;2.37;;
4585;SDS011;2305;50.118;8.952;2022-10-16T12:47:37;2.90;;;1.40;;
4585;SDS011;2305;50.118;8.952;2022-10-16T12:50:25;2.20;;;1.47;;
4585;SDS011;2305;50.118;8.952;2022-10-16T12:52:59;3.23;;;1.70;;
4585;SDS011;2305;50.118;8.952;2022-10-16T12:55:31;3.13;;;1.60;;
4585;SDS011;2305;50.118;8.952;2022-10-16T12:58:09;1.70;;;1.50;;
4585;SDS011;2305;50.118;8.952;2022-10-16T13:00:49;1.97;;;1.40;;
4585;SDS011;2305;50.118;8.952;2022-10-16T13:03:43;4.03;;;1.40;;
4585;SDS011;2305;50.118;8.952;2022-10-16T13:06:25;4.13;;;1.20;;
4585;SDS011;2305;50.118;8.952;2022-10-16T13:09:03;2.20;;;1.70;;
4585;SDS011;2305;50.118;8.952;2022-10-16T13:11:44;1.30;;;1.20;;
4585;SDS011;2305;50.118;8.952;2022-10-16T13:14:33;1.20;;;1.00;;
4585;SDS011;2305;50.118;8.952;2022-10-16T13:17:14;3.37;;;1.10;;
4585;SDS011;2305;50.118;8.952;2022-10-16T13:19:56;1.47;;;1.17;;
4585;SDS011;2305;50.118;8.952;2022-10-16T13:22:32;1.63;;;1.30;;
4585;SDS011;2305;50.118;8.952;2022-10-16T13:25:14;1.40;;;1.20;;
4585;SDS011;2305;50.118;8.952;2022-10-16T13:27:52;2.47;;;1.00;;
4585;SDS011;2305;50.118;8.952;2022-10-16T13:30:23;2.40;;;1.33;;
4585;SDS011;2305;50.118;8.952;2022-10-16T13:32:58;5.43;;;1.83;;
4585;SDS011;2305;50.118;8.952;2022-10-16T13:35:30;1.83;;;1.20;;
4585;SDS011;2305;50.118;8.952;2022-10-16T13:38:03;5.70;;;1.50;;
4585;SDS011;2305;50.118;8.952;2022-10-16T13:40:50;2.70;;;1.20;;
4585;SDS011;2305;50.118;8.952;2022-10-16T13:43:19;12.90;;;1.20;;
4585;SDS011;2305;50.118;8.952;2022-10-16T13:45:54;1.40;;;1.30;;
4585;SDS011;2305;50.118;8.952;2022-10-16T13:48:24;3.17;;;1.47;;
4585;SDS011;2305;50.118;8.952;2022-10-16T13:51:03;3.67;;;1.00;;
4585;SDS011;2305;50.118;8.952;2022-10-16T13:53:36;1.20;;;1.00;;
4585;SDS011;2305;50.118;8.952;2022-10-16T13:56:06;1.80;;;1.40;;
4585;SDS011;2305;50.118;8.952;2022-10-16T13:58:39;3.40;;;1.40;;
4585;SDS011;2305;50.118;8.952;2022-10-16T14:01:14;7.00;;;1.20;;
4585;SDS011;2305;50.118;8.952;2022-10-16T14:03:45;2.73;;;1.50;;
4585;SDS011;2305;50.118;8.952;2022-10-16T14:06:16;2.23;;;1.40;;
4585;SDS011;2305;50.118;8.952;2022-10-16T14:08:50;1.53;;;1.27;;
4585;SDS011;2305;50.118;8.952;2022-10-16T14:11:21;1.43;;;1.33;;
4585;SDS011;2305;50.118;8.952;2022-10-16T14:13:50;1.87;;;1.20;;
4585;SDS011;2305;50.118;8.952;2022-10-16T14:16:20;2.40;;;1.30;;
4585;SDS011;2305;50.118;8.952;2022-10-16T14:18:56;2.70;;;1.30;;
4585;SDS011;2305;50.118;8.952;2022-10-16T14:21:29;1.83;;;1.27;;
4585;SDS011;2305;50.118;8.952;2022-10-16T14:23:58;1.23;;;1.10;;
4585;SDS011;2305;50.118;8.952;2022-10-16T14:26:28;2.10;;;1.53;;
4585;SDS011;2305;50.118;8.952;2022-10-16T14:29:10;1.60;;;1.43;;
4585;SDS011;2305;50.118;8.952;2022-10-16T14:31:39;1.97;;;1.30;;
4585;SDS011;2305;50.118;8.952;2022-10-16T14:34:23;3.53;;;1.40;;
4585;SDS011;2305;50.118;8.952;2022-10-16T14:36:58;2.23;;;1.30;;
4585;SDS011;2305;50.118;8.952;2022-10-16T14:39:28;2.57;;;1.37;;
4585;SDS011;2305;50.118;8.952;2022-10-16T14:41:56;2.07;;;1.40;;
4585;SDS011;2305;50.118;8.952;2022-10-16T14:44:29;5.17;;;1.53;;
4585;SDS011;2305;50.118;8.952;2022-10-16T14:47:07;3.20;;;1.40;;
4585;SDS011;2305;50.118;8.952;2022-10-16T14:49:36;3.77;;;1.63;;
4585;SDS011;2305;50.118;8.952;2022-10-16T14:52:08;1.70;;;1.43;;
4585;SDS011;2305;50.118;8.952;2022-10-16T14:54:38;1.70;;;1.40;;
4585;SDS011;2305;50.118;8.952;2022-10-16T14:57:15;3.00;;;1.33;;
4585;SDS011;2305;50.118;8.952;2022-10-16T14:59:44;2.27;;;1.40;;
4585;SDS011;2305;50.118;8.952;2022-10-16T15:02:16;3.77;;;1.53;;
4585;SDS011;2305;50.118;8.952;2022-10-16T15:04:50;3.00;;;1.50;;
4585;SDS011;2305;50.118;8.952;2022-10-16T15:07:20;3.93;;;1.40;;
4585;SDS011;2305;50.118;8.952;2022-10-16T15:09:48;2.70;;;1.57;;
4585;SDS011;2305;50.118;8.952;2022-10-16T15:12:16;2.40;;;1.50;;
4585;SDS011;2305;50.118;8.952;2022-10-16T15:14:44;1.70;;;1.40;;
4585;SDS011;2305;50.118;8.952;2022-10-16T15:17:12;3.83;;;1.40;;
4585;SDS011;2305;50.118;8.952;2022-10-16T15:19:44;1.80;;;1.70;;
4585;SDS011;2305;50.118;8.952;2022-10-16T15:22:14;3.90;;;1.53;;
4585;SDS011;2305;50.118;8.952;2022-10-16T15:24:46;5.47;;;1.50;;
4585;SDS011;2305;50.118;8.952;2022-10-16T15:27:13;1.93;;;1.20;;
4585;SDS011;2305;50.118;8.952;2022-10-16T15:29:41;4.93;;;1.60;;
4585;SDS011;2305;50.118;8.952;2022-10-16T15:32:10;3.60;;;1.83;;
4585;SDS011;2305;50.118;8.952;2022-10-16T15:34:38;1.50;;;1.40;;
4585;SDS011;2305;50.118;8.952;2022-10-16T15:37:05;7.03;;;1.83;;
4585;SDS011;2305;50.118;8.952;2022-10-16T15:39:33;3.73;;;1.40;;
4585;SDS011;2305;50.118;8.952;2022-10-16T15:42:08;2.90;;;1.70;;
4585;SDS011;2305;50.118;8.952;2022-10-16T15:44:36;3.87;;;1.43;;
4585;SDS011;2305;50.118;8.952;2022-10-16T15:47:04;4.30;;;1.70;;
4585;SDS011;2305;50.118;8.952;2022-10-16T15:49:32;2.03;;;1.60;;